Time;durP1;ratioP1;P1;durP2;ratioP2;P2;SDS_P1;SDS_P2;PMS_P1;PMS_P2;Temp;Humidity;BMP_temperature;BMP_pressure;BME280_temperature;BME280_humidity;BME280_pressure;Samples;Min_cycle;Max_cycle;Signal;HPM_P1;HPM_P2
2022/05/29 00:00:14;;;;;;;2.10;1.00;;;;;;;12.31;100.00;99173.91;4762612;29;20340;-89
2022/05/29 00:02:59;;;;;;;0.87;0.80;;;;;;;12.14;100.00;99162.31;4943756;24;20240;-90
2022/05/29 00:09:14;;;;;;;2.17;0.80;;;;;;;11.95;100.00;99166.25;5203640;24;20249;-89
2022/05/29 06:10:22;;;;;;;2.80;1.20;;;;;;;16.60;78.08;99001.44;930424;24;20510;-88
2022/05/29 06:12:50;;;;;;;3.60;0.93;;;;;;;16.92;73.12;99002.97;4774141;29;20238;-94
2022/05/29 06:15:18;;;;;;;1.93;1.10;;;;;;;17.33;71.48;98999.00;4740529;30;20349;-96
2022/05/29 06:17:45;;;;;;;2.67;1.13;;;;;;;17.42;71.42;98996.53;4741998;30;20238;-96
2022/05/29 06:20:13;;;;;;;2.67;1.17;;;;;;;17.62;68.33;98999.16;4737602;30;20358;-94
2022/05/29 06:22:41;;;;;;;2.27;1.00;;;;;;;17.74;66.54;99004.19;4738172;30;20268;-96
2022/05/29 06:25:10;;;;;;;3.00;1.10;;;;;;;17.97;65.23;99009.72;4751538;30;20253;-96
2022/05/29 06:27:38;;;;;;;1.30;0.90;;;;;;;18.06;64.04;99001.78;4741399;30;20241;-96
2022/05/29 06:30:07;;;;;;;2.47;0.97;;;;;;;18.43;61.45;99001.19;4729901;30;20235;-96
2022/05/29 06:32:36;;;;;;;1.73;1.10;;;;;;;18.92;60.27;99001.00;4741140;30;20267;-93
2022/05/29 06:35:05;;;;;;;2.20;1.07;;;;;;;18.80;59.96;98998.69;4733187;30;20243;-96
2022/05/29 06:37:31;;;;;;;2.60;1.07;;;;;;;19.13;57.95;99002.38;4742233;30;20243;-94
2022/05/29 06:39:58;;;;;;;1.80;1.00;;;;;;;19.14;57.06;98997.75;4735106;30;20696;-94
2022/05/29 06:42:26;;;;;;;2.87;1.03;;;;;;;19.67;54.61;98991.09;4747688;30;20241;-93
2022/05/29 06:44:54;;;;;;;1.90;1.20;;;;;;;19.58;52.38;98989.31;4744546;30;20246;-96
2022/05/29 06:47:21;;;;;;;1.77;1.17;;;;;;;20.10;50.63;98994.50;4751056;30;20247;-96
2022/05/29 06:49:50;;;;;;;1.20;1.10;;;;;;;19.70;48.33;98978.81;4736521;30;20250;-94
2022/05/29 06:52:18;;;;;;;1.83;1.20;;;;;;;19.67;49.17;98977.50;4735133;30;20319;-90
2022/05/29 06:54:45;;;;;;;2.43;1.00;;;;;;;19.69;49.83;98978.00;4741359;30;20270;-93
2022/05/29 06:57:13;;;;;;;2.20;1.00;;;;;;;19.71;50.71;98978.53;4752735;30;20554;-93
2022/05/29 07:08:00;;;;;;;1.30;1.00;;;;;;;19.58;53.44;98967.59;4751793;30;20343;-93
2022/05/29 07:10:31;;;;;;;3.63;1.20;;;;;;;20.09;51.73;98967.59;4739155;30;20235;-93
2022/05/29 07:12:59;;;;;;;3.97;1.10;;;;;;;20.49;49.34;98957.94;4763501;30;20860;-93
2022/05/29 07:15:26;;;;;;;1.27;1.10;;;;;;;20.77;47.35;98958.75;4749804;30;20316;-93
2022/05/29 07:17:58;;;;;;;2.20;1.10;;;;;;;21.34;48.06;98960.06;4751783;30;20998;-93
2022/05/29 07:20:25;;;;;;;2.53;1.13;;;;;;;21.50;45.90;98953.97;4741133;30;20260;-91
2022/05/29 07:22:52;;;;;;;3.20;1.00;;;;;;;21.39;46.24;98949.03;4715060;30;20241;-93
2022/05/29 07:25:19;;;;;;;1.67;1.10;;;;;;;21.44;46.67;98944.28;4733098;30;20322;-93
2022/05/29 07:27:46;;;;;;;2.87;1.20;;;;;;;21.53;45.58;98947.09;4719729;30;20242;-92
2022/05/29 07:30:14;;;;;;;2.13;1.07;;;;;;;21.10;47.49;98949.38;4744726;30;20246;-92
2022/05/29 07:32:40;;;;;;;1.83;0.97;;;;;;;20.67;43.87;98952.41;4741815;30;20316;-93
2022/05/29 07:35:07;;;;;;;3.00;0.97;;;;;;;20.27;43.04;98957.75;4718092;30;20245;-91
2022/05/29 07:37:37;;;;;;;3.40;1.07;;;;;;;20.11;44.24;98959.97;4761108;30;20282;-96
2022/05/29 07:40:06;;;;;;;2.00;1.10;;;;;;;20.01;43.22;98963.66;4734317;30;20675;-96
2022/05/29 07:45:20;;;;;;;1.63;0.93;;;;;;;19.66;45.70;98964.19;4751952;30;20891;-96
2022/05/29 07:47:47;;;;;;;1.73;0.93;;;;;;;19.48;45.46;98968.53;4728447;30;20225;-95
2022/05/29 07:50:17;;;;;;;2.40;0.70;;;;;;;19.28;44.11;98972.31;4732425;30;20238;-96
2022/05/29 07:52:45;;;;;;;1.73;1.00;;;;;;;19.29;43.81;98973.94;4744649;30;20243;-95
2022/05/29 07:55:13;;;;;;;2.80;1.03;;;;;;;18.82;46.48;98976.69;4735307;30;20245;-93
2022/05/29 07:57:40;;;;;;;1.50;0.97;;;;;;;19.03;45.75;98972.66;4733770;30;20262;-95
2022/05/29 08:00:10;;;;;;;2.10;1.00;;;;;;;19.19;44.27;98970.53;4741484;30;20344;-94
2022/05/29 08:02:37;;;;;;;1.70;0.80;;;;;;;19.20;43.52;98983.81;4750720;30;20325;-94
2022/05/29 08:05:05;;;;;;;2.43;1.00;;;;;;;19.23;44.11;98982.41;4752090;30;20259;-92
2022/05/29 08:07:32;;;;;;;2.37;1.00;;;;;;;19.30;44.63;98977.47;4749777;30;20767;-91
2022/05/29 08:09:59;;;;;;;1.60;0.93;;;;;;;19.30;43.31;98969.31;4752896;30;20311;-93
2022/05/29 08:12:26;;;;;;;1.33;0.87;;;;;;;19.25;44.10;98966.66;4734513;30;20337;-93
2022/05/29 08:14:55;;;;;;;1.43;1.10;;;;;;;19.47;42.91;98961.47;4754869;30;20334;-93
2022/05/29 08:17:22;;;;;;;2.83;1.13;;;;;;;19.73;44.09;98959.22;4732741;30;20277;-92
2022/05/29 08:19:48;;;;;;;1.77;1.10;;;;;;;20.19;43.69;98951.91;4750822;30;20250;-94
2022/05/29 08:22:15;;;;;;;2.33;1.30;;;;;;;20.73;41.77;98953.13;4726114;29;20356;-93
2022/05/29 08:30:38;;;;;;;4.17;1.10;;;;;;;21.68;39.23;98951.38;4755270;30;20256;-94
2022/05/29 08:33:08;;;;;;;1.70;0.90;;;;;;;21.72;38.33;98949.66;4763939;30;20244;-94
2022/05/29 08:35:36;;;;;;;3.10;1.00;;;;;;;22.06;37.70;98938.22;4729959;30;20250;-93
2022/05/29 08:38:04;;;;;;;1.90;0.93;;;;;;;22.40;37.37;98943.84;4753753;30;20265;-93
2022/05/29 08:40:32;;;;;;;2.77;1.00;;;;;;;22.85;37.20;98946.50;4753868;30;20250;-92
2022/05/29 08:42:59;;;;;;;3.30;0.90;;;;;;;23.26;35.98;98936.81;4733516;30;20278;-92
2022/05/29 08:45:28;;;;;;;2.50;1.30;;;;;;;23.47;34.69;98930.75;4724686;30;20245;-93
2022/05/29 08:47:55;;;;;;;1.77;0.90;;;;;;;23.97;34.27;98920.91;4742139;30;20305;-91
2022/05/29 08:50:34;;;;;;;2.43;1.27;;;;;;;24.27;32.51;98910.06;4732163;30;20243;-94
2022/05/29 08:53:06;;;;;;;2.23;1.00;;;;;;;24.24;31.07;98899.78;4720041;30;20276;-93
2022/05/29 08:55:48;;;;;;;1.50;0.80;;;;;;;24.62;29.22;98892.38;4752156;30;20261;-92
2022/05/29 08:58:32;;;;;;;1.43;0.90;;;;;;;25.10;27.53;98894.72;4744775;30;20238;-91
2022/05/29 09:00:59;;;;;;;1.80;1.00;;;;;;;24.97;27.30;98891.09;4735792;29;20295;-93
2022/05/29 09:03:39;;;;;;;2.38;0.75;;;;;;;25.38;27.76;98903.25;4749058;30;20254;-94
2022/05/29 09:06:14;;;;;;;2.22;1.08;;;;;;;25.55;26.68;98897.63;4786568;29;20303;-94
2022/05/29 09:09:08;;;;;;;1.42;0.95;;;;;;;25.43;27.01;98901.06;4750016;30;20246;-93
2022/05/29 09:11:54;;;;;;;2.38;0.70;;;;;;;25.50;26.88;98906.03;4730938;30;20254;-95
2022/05/29 09:14:36;;;;;;;2.45;1.10;;;;;;;25.35;27.22;98899.22;4749092;30;20318;-93
2022/05/29 09:17:06;;;;;;;3.45;1.27;;;;;;;25.23;27.28;98901.88;4761299;30;20259;-92
2022/05/29 09:19:38;;;;;;;2.15;1.00;;;;;;;25.04;28.49;98900.72;4760541;29;20242;-93
2022/05/29 09:22:14;;;;;;;2.47;1.02;;;;;;;24.37;29.52;98899.56;4746403;30;20239;-95
2022/05/29 09:24:57;;;;;;;1.85;0.95;;;;;;;23.61;29.23;98888.44;4734475;29;20274;-92
2022/05/29 09:27:24;;;;;;;1.88;1.30;;;;;;;22.90;31.79;98903.47;4751581;30;20311;-93
2022/05/29 09:29:51;;;;;;;1.13;0.93;;;;;;;22.30;31.93;98900.50;4741557;29;20250;-95
2022/05/29 09:32:29;;;;;;;0.88;0.80;;;;;;;21.41;34.42;98897.78;4739066;30;20246;-95
2022/05/29 09:35:01;;;;;;;2.53;1.10;;;;;;;20.92;36.07;98901.28;4745294;29;20227;-95
2022/05/29 09:37:40;;;;;;;1.63;1.00;;;;;;;20.43;36.29;98902.81;4749407;30;20281;-95
2022/05/29 09:40:16;;;;;;;3.87;1.10;;;;;;;19.96;36.77;98895.78;4767304;30;20306;-95
2022/05/29 09:42:43;;;;;;;1.70;0.80;;;;;;;19.61;37.01;98894.44;4751254;30;20245;-95
2022/05/29 09:45:16;;;;;;;2.30;1.10;;;;;;;19.28;38.15;98898.97;4765272;30;20259;-94
2022/05/29 09:50:49;;;;;;;3.33;1.00;;;;;;;18.90;39.78;98909.00;4762781;30;20239;-96
2022/05/29 09:53:25;;;;;;;3.33;0.90;;;;;;;18.80;39.58;98914.56;4755968;30;20236;-95
2022/05/29 09:55:55;;;;;;;1.73;0.80;;;;;;;18.79;39.41;98910.25;4760568;30;20313;-95
2022/05/29 09:58:26;;;;;;;1.67;0.90;;;;;;;18.77;40.02;98912.44;4756052;29;20350;-96
2022/05/29 10:00:54;;;;;;;2.23;0.90;;;;;;;18.80;41.14;98908.34;4746970;29;20243;-96
2022/05/29 10:03:55;;;;;;;2.53;1.13;;;;;;;18.89;39.53;98906.59;4751935;30;20295;-96
2022/05/29 10:06:26;;;;;;;1.83;1.10;;;;;;;18.95;39.13;98910.84;4744385;30;20267;-96
2022/05/29 10:09:14;;;;;;;1.83;0.80;;;;;;;19.09;39.33;98902.78;4738368;30;20242;-96
2022/05/29 10:11:43;;;;;;;2.13;1.07;;;;;;;19.27;38.87;98905.50;4741683;30;20251;-96
2022/05/29 10:14:19;;;;;;;2.77;1.10;;;;;;;19.58;39.64;98903.19;4740698;30;20244;-96
2022/05/29 10:16:49;;;;;;;1.30;0.90;;;;;;;19.94;37.32;98900.69;4751645;30;20304;-96
2022/05/29 10:19:36;;;;;;;3.23;1.00;;;;;;;20.30;36.93;98900.88;4746482;30;20240;-96
2022/05/29 10:22:12;;;;;;;2.20;1.13;;;;;;;20.54;36.98;98897.97;4740638;30;20315;-96
2022/05/29 10:24:40;;;;;;;2.00;1.07;;;;;;;20.89;36.91;98908.16;4739896;30;20327;-96
2022/05/29 10:27:14;;;;;;;3.90;1.90;;;;;;;21.32;36.86;98899.63;4740286;30;20249;-96
2022/05/29 10:29:41;;;;;;;2.33;1.43;;;;;;;21.51;35.92;98898.34;4727703;30;20246;-96
2022/05/29 10:32:20;;;;;;;2.33;1.07;;;;;;;21.57;34.52;98900.94;4746746;29;20338;-96
2022/05/29 10:34:48;;;;;;;2.63;1.00;;;;;;;21.84;34.58;98907.06;4751798;30;20300;-96
2022/05/29 10:37:30;;;;;;;1.20;1.10;;;;;;;22.10;34.06;98901.03;4747083;29;20340;-94
2022/05/29 10:40:21;;;;;;;2.70;1.30;;;;;;;22.20;33.60;98898.03;4740307;29;20247;-96
2022/05/29 10:42:51;;;;;;;1.43;1.20;;;;;;;22.23;31.68;98903.66;4732299;30;20341;-96
2022/05/29 10:45:41;;;;;;;1.90;1.00;;;;;;;22.35;31.23;98892.16;4743297;30;20979;-96
2022/05/29 10:48:08;;;;;;;1.37;0.93;;;;;;;22.44;30.93;98898.47;4755977;30;20301;-94
2022/05/29 10:50:59;;;;;;;1.40;0.90;;;;;;;22.77;32.13;98898.91;4752595;30;20231;-95
2022/05/29 10:53:38;;;;;;;2.93;1.20;;;;;;;22.92;32.97;98905.88;4743321;30;20391;-94
2022/05/29 10:56:27;;;;;;;2.97;1.20;;;;;;;22.54;34.43;98900.09;4740447;30;20239;-91
2022/05/29 10:59:17;;;;;;;1.53;1.10;;;;;;;22.32;33.61;98895.50;4738142;30;20246;-95
2022/05/29 11:05:13;;;;;;;2.30;1.10;;;;;;;21.31;35.16;98892.56;4743346;30;20239;-95
2022/05/29 11:07:59;;;;;;;1.67;1.00;;;;;;;20.82;35.10;98894.13;4766364;30;20243;-95
2022/05/29 11:10:29;;;;;;;2.20;0.90;;;;;;;20.61;38.28;98887.50;4769562;30;21755;-95
2022/05/29 11:13:19;;;;;;;4.50;1.10;;;;;;;20.77;37.99;98885.25;4761332;30;20349;-95
2022/05/29 11:15:59;;;;;;;2.13;1.17;;;;;;;20.57;38.08;98890.03;4739126;30;20233;-93
2022/05/29 11:18:25;;;;;;;1.40;0.97;;;;;;;20.70;39.20;98888.41;4747168;30;20238;-95
2022/05/29 11:21:03;;;;;;;4.87;1.40;;;;;;;20.83;40.89;98897.66;4745941;30;20426;-94
2022/05/29 11:23:41;;;;;;;9.63;8.73;;;;;;;20.65;41.52;98886.59;4762268;30;20242;-94
2022/05/29 11:26:32;;;;;;;5.67;3.97;;;;;;;20.56;43.30;98885.69;4748292;30;20245;-94
2022/05/29 11:29:30;;;;;;;3.80;1.47;;;;;;;20.35;47.59;98889.91;4759166;30;20332;-94
2022/05/29 11:32:26;;;;;;;2.40;1.30;;;;;;;20.07;48.16;98885.50;4748998;30;20352;-94
2022/05/29 11:35:05;;;;;;;2.67;1.50;;;;;;;19.69;54.11;98884.81;4762121;30;20240;-94
2022/05/29 11:37:53;;;;;;;3.40;1.30;;;;;;;19.39;56.02;98894.22;4762342;30;20247;-94
2022/05/29 11:40:26;;;;;;;1.57;1.30;;;;;;;19.07;60.37;98888.72;4761848;30;20809;-94
2022/05/29 11:43:19;;;;;;;3.53;1.53;;;;;;;18.91;64.61;98904.38;4743976;30;20275;-93
2022/05/29 11:52:37;;;;;;;3.43;1.70;;;;;;;19.76;59.82;98883.31;4762951;30;20236;-95
2022/05/29 11:55:13;;;;;;;1.80;1.67;;;;;;;20.48;58.81;98886.38;4761768;30;20236;-95
2022/05/29 11:57:49;;;;;;;4.37;1.57;;;;;;;20.75;56.44;98882.88;4749566;29;20248;-95
2022/05/29 12:00:28;;;;;;;2.60;1.43;;;;;;;21.14;55.92;98887.75;4759428;29;20233;-94
2022/05/29 12:03:01;;;;;;;2.47;1.37;;;;;;;21.46;52.84;98893.00;4751765;30;20247;-95
2022/05/29 12:05:37;;;;;;;2.57;1.40;;;;;;;21.84;53.28;98882.53;4753211;30;20245;-94
2022/05/29 12:08:21;;;;;;;2.20;1.20;;;;;;;22.08;52.09;98886.88;4742579;30;20252;-94
2022/05/29 12:11:13;;;;;;;2.30;1.40;;;;;;;22.16;51.41;98884.19;4746406;30;20324;-94
2022/05/29 12:13:50;;;;;;;2.10;1.30;;;;;;;22.20;51.07;98884.38;4784516;29;21511;-94
2022/05/29 12:16:20;;;;;;;2.43;1.33;;;;;;;22.20;51.82;98878.94;4766268;30;20247;-94
2022/05/29 12:18:52;;;;;;;2.87;1.30;;;;;;;21.79;52.74;98873.69;4753371;30;20237;-93
2022/05/29 12:21:42;;;;;;;2.70;1.50;;;;;;;21.66;53.45;98875.34;4728120;30;20237;-94
2022/05/29 12:24:14;;;;;;;1.30;1.17;;;;;;;21.44;53.64;98870.72;4736248;30;20261;-94
2022/05/29 12:26:58;;;;;;;2.13;1.10;;;;;;;21.45;54.38;98860.63;4746067;30;20252;-94
2022/05/29 12:29:39;;;;;;;1.80;1.20;;;;;;;21.67;53.78;98865.25;4746046;30;20291;-93
2022/05/29 12:32:10;;;;;;;1.87;1.30;;;;;;;21.64;52.15;98866.69;4740010;30;20243;-94
2022/05/29 12:34:43;;;;;;;1.77;1.30;;;;;;;21.69;52.00;98865.78;4735009;30;20377;-94
2022/05/29 12:37:43;;;;;;;2.67;1.40;;;;;;;21.60;51.50;98863.00;4746832;30;20260;-94
2022/05/29 12:40:55;;;;;;;1.73;1.23;;;;;;;21.23;53.72;98863.34;4747187;30;20247;-94
2022/05/29 12:43:21;;;;;;;1.83;1.10;;;;;;;21.20;54.22;98863.94;4756727;30;20246;-94
2022/05/29 12:46:07;;;;;;;1.33;1.20;;;;;;;20.61;55.47;98866.53;4753953;30;20225;-92
2022/05/29 12:48:53;;;;;;;1.20;1.10;;;;;;;20.30;56.33;98859.22;4767588;30;20243;-92
2022/05/29 12:51:45;;;;;;;1.30;1.10;;;;;;;19.92;59.73;98870.28;4749806;30;20246;-92
2022/05/29 12:54:31;;;;;;;2.30;1.57;;;;;;;19.74;60.50;98865.69;4746267;30;20239;-96
2022/05/29 12:57:19;;;;;;;2.17;1.50;;;;;;;19.71;61.24;98869.00;4742238;30;20261;-94
2022/05/29 13:00:01;;;;;;;1.40;1.30;;;;;;;19.45;61.85;98876.78;4749827;30;20700;-94
2022/05/29 13:03:06;;;;;;;3.17;1.40;;;;;;;19.19;60.27;98870.06;4763171;30;20247;-95
2022/05/29 13:06:00;;;;;;;2.73;1.83;;;;;;;18.88;62.30;98877.84;4762245;30;20229;-96
2022/05/29 13:08:52;;;;;;;2.03;1.57;;;;;;;18.57;65.01;98890.19;4752887;30;20247;-96
2022/05/29 13:11:22;;;;;;;2.83;1.67;;;;;;;18.43;65.43;98885.38;4755454;30;20243;-94
2022/05/29 13:13:53;;;;;;;2.17;1.73;;;;;;;18.33;67.96;98882.00;4756485;30;20228;-96
2022/05/29 13:16:41;;;;;;;1.70;1.60;;;;;;;18.12;68.64;98894.13;4745597;29;20327;-96
2022/05/29 13:19:14;;;;;;;4.67;1.70;;;;;;;17.83;69.67;98896.84;4743574;30;20243;-95
2022/05/29 13:22:00;;;;;;;1.97;1.60;;;;;;;17.41;72.29;98889.28;4757280;30;20270;-94
2022/05/29 13:24:37;;;;;;;1.93;1.60;;;;;;;17.09;74.80;98885.16;4743571;30;20322;-96
2022/05/29 13:27:13;;;;;;;3.20;1.77;;;;;;;16.96;78.32;98887.69;4746999;30;20231;-96
2022/05/29 13:29:49;;;;;;;3.93;1.83;;;;;;;16.88;80.05;98893.69;4771964;30;20239;-95
2022/05/29 13:32:20;;;;;;;1.60;1.50;;;;;;;16.80;82.14;98892.34;4760792;30;20243;-95
2022/05/29 13:34:50;;;;;;;2.43;1.70;;;;;;;16.78;84.32;98886.44;4725163;30;20267;-96
2022/05/29 13:37:47;;;;;;;3.13;1.60;;;;;;;16.70;84.62;98882.38;4743373;30;20248;-94
2022/05/29 13:40:29;;;;;;;2.83;1.80;;;;;;;16.68;89.30;98887.28;4742560;30;20247;-96
2022/05/29 13:43:14;;;;;;;2.83;1.50;;;;;;;16.72;90.13;98882.94;4738292;30;20312;-96
2022/05/29 13:45:42;;;;;;;3.20;1.90;;;;;;;16.60;91.57;98885.16;4745862;30;20240;-94
2022/05/29 13:48:26;;;;;;;2.73;1.67;;;;;;;16.47;93.69;98890.31;4739755;30;20235;-93
2022/05/29 13:51:11;;;;;;;2.00;1.80;;;;;;;16.41;97.48;98881.41;4748920;30;20236;-94
2022/05/29 13:53:59;;;;;;;3.07;1.83;;;;;;;16.49;96.50;98888.94;4738728;30;20775;-93
2022/05/29 13:57:02;;;;;;;2.70;2.03;;;;;;;16.51;98.95;98896.78;4724677;30;20330;-93
2022/05/29 14:05:40;;;;;;;2.43;1.80;;;;;;;16.51;95.81;98886.78;4782279;30;20243;-96
2022/05/29 14:08:20;;;;;;;2.00;1.80;;;;;;;16.53;98.14;98881.06;4748720;30;20245;-96
2022/05/29 14:11:00;;;;;;;1.70;1.60;;;;;;;16.65;98.57;98876.22;4761929;30;20242;-94
2022/05/29 14:13:36;;;;;;;2.43;2.00;;;;;;;16.83;96.78;98881.00;4759749;29;20238;-93
2022/05/29 14:16:26;;;;;;;2.53;1.90;;;;;;;16.88;100.00;98890.97;4750703;29;20308;-93
2022/05/29 14:19:21;;;;;;;1.83;1.73;;;;;;;16.81;96.88;98893.97;4753984;30;20235;-94
2022/05/29 14:22:03;;;;;;;2.37;1.80;;;;;;;16.55;99.60;98904.06;4779149;29;20243;-94
2022/05/29 14:24:32;;;;;;;2.33;2.00;;;;;;;16.35;100.00;98897.91;4740634;30;20313;-93
2022/05/29 14:27:11;;;;;;;2.57;1.90;;;;;;;16.23;100.00;98890.09;4760720;30;20318;-91
2022/05/29 14:29:50;;;;;;;2.60;2.10;;;;;;;16.16;100.00;98887.69;4746216;30;20232;-94
2022/05/29 14:33:12;;;;;;;3.53;2.10;;;;;;;16.12;100.00;98880.38;4770372;29;20267;-94
2022/05/29 14:35:59;;;;;;;5.63;2.17;;;;;;;16.38;100.00;98871.13;4730050;30;20231;-94
2022/05/29 14:38:38;;;;;;;2.77;2.00;;;;;;;16.57;100.00;98868.63;4734699;30;20326;-94
2022/05/29 14:41:31;;;;;;;3.83;2.30;;;;;;;16.75;100.00;98867.25;4769553;30;20268;-95
2022/05/29 14:44:05;;;;;;;2.87;1.90;;;;;;;16.93;100.00;98866.59;4733289;30;20239;-94
2022/05/29 14:47:13;;;;;;;2.60;1.90;;;;;;;17.07;95.55;98868.41;4745400;30;20234;-94
2022/05/29 14:49:43;;;;;;;2.57;1.90;;;;;;;17.12;95.71;98860.25;4758918;30;20496;-94
2022/05/29 14:52:23;;;;;;;2.33;1.70;;;;;;;17.33;92.81;98860.94;4758125;30;20239;-95
2022/05/29 14:54:51;;;;;;;2.13;1.93;;;;;;;17.52;90.36;98861.88;4757833;30;20284;-95
2022/05/29 14:57:26;;;;;;;1.90;1.70;;;;;;;17.50;90.51;98863.22;4739804;30;20265;-94
2022/05/29 14:59:55;;;;;;;2.87;1.77;;;;;;;17.79;89.24;98852.44;4741109;30;20239;-94
2022/05/29 15:02:26;;;;;;;2.20;1.63;;;;;;;17.98;87.44;98861.47;4754754;30;20297;-94
2022/05/29 15:04:59;;;;;;;1.97;1.60;;;;;;;18.16;85.77;98852.63;4754049;30;20235;-93
2022/05/29 15:10:32;;;;;;;3.37;1.60;;;;;;;18.16;83.42;98860.75;4741380;30;20239;-93
2022/05/29 15:13:05;;;;;;;2.83;1.60;;;;;;;18.09;82.71;98856.78;4739896;30;20240;-94
2022/05/29 15:15:37;;;;;;;2.67;1.50;;;;;;;17.92;85.61;98858.00;4756249;30;20322;-94
2022/05/29 15:18:13;;;;;;;2.23;1.37;;;;;;;17.74;85.66;98855.19;4742279;30;20234;-94
2022/05/29 15:26:17;;;;;;;2.30;1.60;;;;;;;17.10;83.63;98854.31;4778281;29;20226;-94
2022/05/29 15:28:48;;;;;;;1.63;1.50;;;;;;;16.87;87.85;98851.47;4766243;29;20218;-94
2022/05/29 15:31:26;;;;;;;3.30;1.50;;;;;;;16.68;91.35;98849.41;4749885;29;20239;-94
2022/05/29 15:34:12;;;;;;;1.43;1.33;;;;;;;16.45;94.29;98839.22;4740059;30;20270;-94
2022/05/29 15:36:47;;;;;;;1.77;1.40;;;;;;;16.29;96.69;98853.84;4760281;30;20249;-94
2022/05/29 15:39:40;;;;;;;1.60;1.40;;;;;;;16.20;100.00;98853.63;4752236;30;20732;-94
2022/05/29 15:42:20;;;;;;;2.17;1.63;;;;;;;15.98;100.00;98850.44;4723486;30;20236;-94
2022/05/29 15:45:14;;;;;;;2.03;1.63;;;;;;;15.82;100.00;98841.53;4745795;30;20232;-94
2022/05/29 15:47:45;;;;;;;1.97;1.70;;;;;;;15.76;100.00;98839.13;4744321;30;20249;-94
2022/05/29 15:50:52;;;;;;;1.50;1.40;;;;;;;15.71;100.00;98848.03;4741504;30;20301;-94
2022/05/29 15:53:34;;;;;;;2.13;1.77;;;;;;;15.67;100.00;98838.88;4750183;30;20243;-94
2022/05/29 15:56:06;;;;;;;1.67;1.57;;;;;;;15.66;100.00;98839.13;4755447;30;20236;-86
2022/05/29 15:58:38;;;;;;;1.87;1.73;;;;;;;15.62;100.00;98848.88;4738194;30;20660;-94
2022/05/29 16:01:17;;;;;;;1.50;1.30;;;;;;;15.52;100.00;98849.69;4736973;30;20286;-94
2022/05/29 16:03:46;;;;;;;1.37;1.27;;;;;;;15.43;100.00;98840.47;4751666;30;20270;-95
2022/05/29 16:06:26;;;;;;;0.93;0.93;;;;;;;15.31;100.00;98851.50;4731549;30;20322;-93
2022/05/29 16:08:59;;;;;;;2.33;1.20;;;;;;;15.14;100.00;98850.97;4745241;30;20293;-94
2022/05/29 16:11:36;;;;;;;1.20;1.10;;;;;;;14.96;100.00;98856.88;4750498;30;20267;-95
2022/05/29 16:14:04;;;;;;;2.07;0.90;;;;;;;14.82;100.00;98858.44;4767391;30;20234;-95
2022/05/29 16:16:34;;;;;;;1.20;1.10;;;;;;;14.57;100.00;98853.78;4745585;30;20325;-94
2022/05/29 16:19:10;;;;;;;1.43;1.10;;;;;;;14.49;100.00;98863.19;4771670;30;20226;-94
2022/05/29 16:22:14;;;;;;;2.87;1.27;;;;;;;14.35;100.00;98870.09;4772078;30;20234;-94
2022/05/29 16:24:46;;;;;;;1.20;1.10;;;;;;;14.20;100.00;98863.81;4774183;30;20243;-94
2022/05/29 16:27:47;;;;;;;1.17;1.07;;;;;;;14.03;100.00;98872.91;4757020;30;20232;-94
2022/05/29 16:30:25;;;;;;;3.13;1.30;;;;;;;13.96;100.00;98876.88;4755306;30;20687;-94
2022/05/29 16:33:15;;;;;;;1.53;1.30;;;;;;;13.81;100.00;98874.88;4756962;30;20318;-93
2022/05/29 16:35:55;;;;;;;1.30;1.20;;;;;;;13.68;100.00;98881.53;4754206;30;20322;-94
2022/05/29 16:49:01;;;;;;;2.20;1.60;;;;;;;13.10;100.00;98863.50;4794588;24;20257;-88
2022/05/29 16:54:46;;;;;;;2.63;1.60;;;;;;;13.10;100.00;98868.06;4875616;24;21131;-90
2022/05/29 17:16:16;;;;;;;1.93;1.70;;;;;;;12.87;100.00;98847.69;4834795;24;20268;-90
